createdAt,value
2016-08-01T00:00:09.737Z,14.2
2016-08-01T00:06:44.646Z,14
2016-08-01T00:09:48.918Z,14
2016-08-01T00:13:00.853Z,13.9
2016-08-01T00:16:16.853Z,13.9
2016-08-01T00:19:30.787Z,13.8
2016-08-01T00:22:44.690Z,13.8
2016-08-01T00:25:58.800Z,13.7
2016-08-01T00:29:12.794Z,13.7
2016-08-01T00:32:26.872Z,13.7
2016-08-01T00:35:45.714Z,13.7
2016-08-01T00:38:49.932Z,13.7
2016-08-01T00:42:04.001Z,13.6
2016-08-01T00:45:17.835Z,13.6
2016-08-01T00:51:45.717Z,13.7
2016-08-01T00:54:59.540Z,13.6
2016-08-01T00:58:13.599Z,13.5
2016-08-01T01:01:27.559Z,13.5
2016-08-01T01:04:46.154Z,13.5
2016-08-01T01:07:50.425Z,13.5
2016-08-01T01:11:04.310Z,13.5
2016-08-01T01:14:18.325Z,13.4
2016-08-01T01:17:32.245Z,13.3
2016-08-01T01:20:45.908Z,13.3
2016-08-01T01:23:59.750Z,13.3
2016-08-01T01:27:13.623Z,13.2
2016-08-01T01:30:27.253Z,13.2
2016-08-01T01:33:46.209Z,13.2
2016-08-01T01:36:50.473Z,13.2
2016-08-01T01:40:04.450Z,13.1
2016-08-01T01:43:18.563Z,13
2016-08-01T01:46:32.360Z,13
2016-08-01T01:49:44.259Z,13
2016-08-01T01:53:00.043Z,13
2016-08-01T01:56:14.086Z,12.9
2016-08-01T01:59:28.089Z,12.9
2016-08-01T02:02:47.116Z,12.9
2016-08-01T02:05:51.438Z,12.9
2016-08-01T02:09:05.412Z,12.9
2016-08-01T02:12:19.420Z,12.8
2016-08-01T02:15:33.289Z,12.8
2016-08-01T02:22:00.907Z,12.8
2016-08-01T02:25:12.949Z,12.7
2016-08-01T02:28:28.858Z,12.7
2016-08-01T02:31:47.601Z,12.7
2016-08-01T02:34:51.762Z,12.7
2016-08-01T02:38:05.402Z,12.7
2016-08-01T02:41:19.190Z,12.7
2016-08-01T02:44:33.038Z,12.8
2016-08-01T02:47:46.983Z,12.8
2016-08-01T02:51:00.838Z,12.8
2016-08-01T02:54:14.908Z,12.8
2016-08-01T02:57:28.532Z,12.9
2016-08-01T03:00:47.691Z,12.8
2016-08-01T03:03:51.935Z,12.8
2016-08-01T03:07:05.682Z,12.8
2016-08-01T03:10:19.522Z,12.7
2016-08-01T03:13:33.907Z,12.7
2016-08-01T03:16:47.616Z,12.7
2016-08-01T03:20:01.535Z,12.7
2016-08-01T03:23:15.470Z,12.7
2016-08-01T03:26:29.419Z,12.7
2016-08-01T03:29:48.284Z,12.7
2016-08-01T03:32:52.519Z,12.7
2016-08-01T03:36:06.447Z,12.7
2016-08-01T03:39:20.497Z,12.7
2016-08-01T03:42:39.616Z,12.6
2016-08-01T03:45:43.876Z,12.6
2016-08-01T03:48:57.835Z,12.7
2016-08-01T03:52:09.756Z,12.7
2016-08-01T03:55:25.775Z,12.7
2016-08-01T03:58:44.635Z,12.6
2016-08-01T04:01:48.839Z,12.7
2016-08-01T04:05:02.845Z,12.7
2016-08-01T04:08:16.641Z,12.7
2016-08-01T04:11:30.783Z,12.7
2016-08-01T04:14:44.836Z,12.7
2016-08-01T04:17:58.980Z,12.7
2016-08-01T04:21:12.841Z,12.7
2016-08-01T04:24:26.522Z,12.7
2016-08-01T04:27:45.539Z,12.7
2016-08-01T04:30:49.713Z,12.7
2016-08-01T04:34:03.765Z,12.8
2016-08-01T04:37:17.661Z,12.8
2016-08-01T04:40:31.492Z,12.8
2016-08-01T04:43:45.117Z,12.8
2016-08-01T04:46:59.074Z,12.8
2016-08-01T04:50:13.000Z,12.8
2016-08-01T04:53:27.011Z,12.8
2016-08-01T04:56:46.087Z,12.8
2016-08-01T04:59:50.256Z,12.8
2016-08-01T05:03:04.202Z,12.8
2016-08-01T05:06:18.114Z,12.7
2016-08-01T05:09:32.176Z,12.7
2016-08-01T05:12:45.781Z,12.8
2016-08-01T05:15:59.888Z,12.8
2016-08-01T05:19:13.880Z,12.9
2016-08-01T05:22:27.894Z,13
2016-08-01T05:25:46.836Z,13.1
2016-08-01T05:28:51.265Z,13.3
2016-08-01T05:32:05.210Z,13.5
2016-08-01T05:35:19.642Z,13.7
2016-08-01T05:38:33.784Z,14
2016-08-01T05:41:47.642Z,14.3
2016-08-01T05:45:01.714Z,14.5
2016-08-01T05:48:15.505Z,14.6
2016-08-01T05:51:29.610Z,14.7
2016-08-01T05:54:48.778Z,14.8
2016-08-01T05:57:53.197Z,14.9
2016-08-01T06:01:07.250Z,15
2016-08-01T06:04:21.514Z,15.2
2016-08-01T06:07:40.829Z,15.3
2016-08-01T06:10:45.311Z,15.5
2016-08-01T06:13:59.736Z,15.7
2016-08-01T06:17:13.843Z,15.8
2016-08-01T06:20:28.231Z,15.9
2016-08-01T06:23:47.349Z,16
2016-08-01T06:26:51.843Z,16.1
2016-08-01T06:30:06.315Z,16.3
2016-08-01T06:33:20.656Z,16.7
2016-08-01T06:36:40.335Z,17.3
2016-08-01T06:39:45.231Z,17.6
2016-08-01T06:42:59.386Z,17.8
2016-08-01T06:46:14.069Z,18.1
2016-08-01T06:49:28.719Z,18.3
2016-08-01T06:52:48.282Z,18.5
2016-08-01T06:55:53.030Z,18.6
2016-08-01T06:59:07.474Z,18.4
2016-08-01T07:02:21.870Z,18.4
2016-08-01T07:05:41.474Z,18.6
2016-08-01T07:08:46.386Z,19
2016-08-01T07:12:00.790Z,19.1
2016-08-01T07:15:15.291Z,19.5
2016-08-01T07:18:29.561Z,18.9
2016-08-01T07:21:43.976Z,18.5
2016-08-01T07:24:58.115Z,17.9
2016-08-01T07:28:12.525Z,18.1
2016-08-01T07:31:27.404Z,19.1
2016-08-01T07:34:47.573Z,19.9
2016-08-01T07:37:53.035Z,20.7
2016-08-01T07:41:08.031Z,21.2
2016-08-01T07:44:22.861Z,21
2016-08-01T07:47:42.532Z,20.8
2016-08-01T07:50:47.659Z,21.5
2016-08-01T07:54:02.193Z,21.8
2016-08-01T07:57:17.414Z,22.5
2016-08-01T08:00:32.795Z,23.2
2016-08-01T08:03:48.140Z,23.7
2016-08-01T08:07:03.368Z,24
2016-08-01T08:10:17.972Z,24.2
2016-08-01T08:13:32.849Z,24.3
2016-08-01T08:16:47.609Z,24.4
2016-08-01T08:20:02.174Z,23.9
2016-08-01T08:23:15.762Z,23.6
2016-08-01T08:26:29.959Z,22.9
2016-08-01T08:29:43.836Z,21.8
2016-08-01T08:32:58.513Z,21.6
2016-08-01T08:36:12.817Z,22.1
2016-08-01T08:39:25.441Z,21.9
2016-08-01T08:42:46.913Z,21.2
2016-08-01T08:45:51.746Z,20.6
2016-08-01T08:49:06.086Z,20.6
2016-08-01T08:52:20.929Z,20.7
2016-08-01T08:55:40.801Z,21.6
2016-08-01T08:58:46.491Z,22.5
2016-08-01T09:02:01.595Z,22.8
2016-08-01T09:05:16.045Z,23.1
2016-08-01T09:08:30.347Z,23.2
2016-08-01T09:11:44.558Z,22.5
2016-08-01T09:14:58.756Z,21.4
2016-08-01T09:18:12.289Z,20.6
2016-08-01T09:21:26.702Z,21.1
2016-08-01T09:24:46.586Z,21.6
2016-08-01T09:27:52.132Z,22.1
2016-08-01T09:31:06.430Z,21.6
2016-08-01T09:34:21.193Z,22
2016-08-01T09:37:40.832Z,22.3
2016-08-01T09:40:45.857Z,22
2016-08-01T09:43:59.956Z,21
2016-08-01T09:47:13.925Z,20.4
2016-08-01T09:53:47.025Z,20
2016-08-01T09:56:51.761Z,19.7
2016-08-01T10:00:06.032Z,19.5
2016-08-01T10:03:19.757Z,19.8
2016-08-01T10:06:39.150Z,20
2016-08-01T10:09:44.053Z,20.1
2016-08-01T10:12:57.993Z,20.1
2016-08-01T10:16:12.214Z,20.1
2016-08-01T10:19:26.572Z,20
2016-08-01T10:22:45.631Z,19.9
2016-08-01T10:25:50.543Z,19.9
2016-08-01T10:29:02.986Z,19.6
2016-08-01T10:32:18.973Z,19.3
2016-08-01T10:38:47.074Z,19.2
2016-08-01T10:42:01.165Z,19.4
2016-08-01T10:45:15.550Z,19.4
2016-08-01T10:48:29.601Z,19.2
2016-08-01T10:51:48.660Z,19.1
2016-08-01T10:54:53.362Z,19.1
2016-08-01T10:58:07.155Z,19.1
2016-08-01T11:01:21.382Z,19.1
2016-08-01T11:04:40.592Z,19.1
2016-08-01T11:07:45.249Z,18.9
2016-08-01T11:10:59.212Z,18.7
2016-08-01T11:14:13.481Z,18.4
2016-08-01T11:17:27.598Z,18.2
2016-08-01T11:20:46.697Z,18.1
2016-08-01T11:23:51.288Z,18
2016-08-01T11:27:05.026Z,18
2016-08-01T11:30:19.019Z,18
2016-08-01T11:33:31.082Z,18.1
2016-08-01T11:36:47.505Z,18
2016-08-01T11:40:01.756Z,17.9
2016-08-01T11:43:16.233Z,17.7
2016-08-01T11:46:30.561Z,17.4
2016-08-01T11:49:44.882Z,17.2
2016-08-01T11:52:59.031Z,17.1
2016-08-01T11:56:13.270Z,16.9
2016-08-01T11:59:27.597Z,16.9
2016-08-01T12:02:46.885Z,17
2016-08-01T12:09:05.793Z,17.1
2016-08-01T12:12:20.022Z,17.1
2016-08-01T12:15:39.270Z,17.2
2016-08-01T12:18:48.916Z,17.2
2016-08-01T12:21:53.534Z,17.1
2016-08-01T12:25:07.822Z,17.1
2016-08-01T12:28:21.968Z,17
2016-08-01T12:31:41.370Z,17
2016-08-01T12:34:45.836Z,17.1
2016-08-01T12:38:00.189Z,17.1
2016-08-01T12:41:14.392Z,17.1
2016-08-01T12:44:28.441Z,17.1
2016-08-01T12:47:47.833Z,17.1
2016-08-01T12:50:52.490Z,17.1
2016-08-01T12:54:06.938Z,17.2
2016-08-01T12:57:21.014Z,17.1
2016-08-01T13:00:40.366Z,17.1
2016-08-01T13:03:44.888Z,17.2
2016-08-01T13:06:58.843Z,17.2
2016-08-01T13:10:13.289Z,17.3
2016-08-01T13:13:25.436Z,17.4
2016-08-01T13:16:46.964Z,17.5
2016-08-01T13:19:51.662Z,17.7
2016-08-01T13:23:06.111Z,17.7
2016-08-01T13:26:20.556Z,17.8
2016-08-01T13:32:44.662Z,17.7
2016-08-01T13:35:59.024Z,17.8
2016-08-01T13:39:13.416Z,17.8
2016-08-01T13:42:27.698Z,17.9
2016-08-01T13:45:47.155Z,17.8
2016-08-01T13:48:51.846Z,17.9
2016-08-01T13:52:06.103Z,17.8
2016-08-01T13:55:20.266Z,17.8
2016-08-01T13:58:39.638Z,17.8
2016-08-01T14:01:44.192Z,17.9
2016-08-01T14:04:58.645Z,18
2016-08-01T14:08:13.113Z,18.1
2016-08-01T14:11:27.573Z,18.2
2016-08-01T14:14:47.059Z,18.2
2016-08-01T14:17:51.833Z,18.2
2016-08-01T14:21:06.329Z,18.2
2016-08-01T14:24:20.700Z,18.2
2016-08-01T14:27:40.149Z,18.3
2016-08-01T14:30:44.862Z,18.3
2016-08-01T14:33:59.325Z,18.2
2016-08-01T14:37:13.756Z,18.2
2016-08-01T14:40:27.972Z,18.3
2016-08-01T14:43:47.325Z,18.3
2016-08-01T14:46:52.049Z,18.3
2016-08-01T14:50:06.392Z,18.4
2016-08-01T14:53:20.971Z,18.4
2016-08-01T14:56:40.309Z,18.4
2016-08-01T14:59:45.052Z,18.4
2016-08-01T15:02:59.413Z,18.5
2016-08-01T15:06:13.917Z,18.6
2016-08-01T15:09:28.347Z,18.7
2016-08-01T15:12:47.866Z,18.7
2016-08-01T15:15:52.653Z,18.7
2016-08-01T15:19:07.075Z,18.6
2016-08-01T15:22:21.525Z,18.6
2016-08-01T15:25:40.593Z,18.6
2016-08-01T15:28:45.387Z,18.6
2016-08-01T15:32:00.040Z,18.6
2016-08-01T15:35:14.508Z,18.6
2016-08-01T15:38:28.842Z,18.6
2016-08-01T15:41:48.206Z,18.4
2016-08-01T15:44:52.767Z,18.3
2016-08-01T15:48:07.000Z,18.1
2016-08-01T15:51:21.347Z,17.9
2016-08-01T15:54:40.644Z,17.8
2016-08-01T15:57:45.172Z,17.8
2016-08-01T16:00:59.676Z,17.7
2016-08-01T16:04:14.022Z,17.6
2016-08-01T16:07:28.436Z,17.5
2016-08-01T16:10:47.819Z,17.5
2016-08-01T16:13:52.535Z,17.6
2016-08-01T16:17:06.849Z,17.7
2016-08-01T16:20:21.212Z,17.8
2016-08-01T16:23:40.539Z,17.9
2016-08-01T16:26:45.058Z,17.8
2016-08-01T16:29:59.261Z,17.8
2016-08-01T16:33:13.526Z,17.8
2016-08-01T16:36:27.862Z,17.7
2016-08-01T16:39:47.055Z,17.7
2016-08-01T16:42:51.675Z,17.7
2016-08-01T16:46:05.924Z,17.6
2016-08-01T16:49:20.126Z,17.6
2016-08-01T16:52:39.505Z,17.6
2016-08-01T16:55:44.170Z,17.6
2016-08-01T16:58:58.784Z,17.5
2016-08-01T17:02:11.180Z,17.5
2016-08-01T17:05:27.369Z,17.4
2016-08-01T17:08:46.747Z,17.4
2016-08-01T17:11:51.362Z,17.4
2016-08-01T17:15:05.752Z,17.4
2016-08-01T17:18:24.132Z,17.4
2016-08-01T17:21:33.992Z,17.3
2016-08-01T17:24:48.175Z,17.3
2016-08-01T17:28:02.624Z,17.3
2016-08-01T17:31:16.890Z,17.3
2016-08-01T17:34:31.239Z,17.3
2016-08-01T17:37:45.592Z,17.2
2016-08-01T17:40:59.930Z,17.2
2016-08-01T17:44:13.817Z,17.2
2016-08-01T17:47:28.050Z,17.1
2016-08-01T17:50:47.408Z,17.1
2016-08-01T17:53:52.007Z,17.1
2016-08-01T17:57:06.222Z,17
2016-08-01T18:00:20.622Z,17
2016-08-01T18:03:39.889Z,16.9
2016-08-01T18:06:44.377Z,16.9
2016-08-01T18:09:58.701Z,16.8
2016-08-01T18:13:12.930Z,16.7
2016-08-01T18:16:26.918Z,16.6
2016-08-01T18:19:46.344Z,16.6
2016-08-01T18:22:50.845Z,16.6
2016-08-01T18:26:05.238Z,16.6
2016-08-01T18:29:19.585Z,16.5
2016-08-01T18:32:33.160Z,16.5
2016-08-01T18:35:47.483Z,16.4
2016-08-01T18:39:01.835Z,16.4
2016-08-01T18:42:15.993Z,16.3
2016-08-01T18:45:29.380Z,16.3
2016-08-01T18:48:47.761Z,16.2
2016-08-01T18:51:52.455Z,16.1
2016-08-01T18:55:06.351Z,16.1
2016-08-01T18:58:20.231Z,16
2016-08-01T19:01:39.496Z,15.9
2016-08-01T19:04:48.909Z,15.8
2016-08-01T19:07:53.394Z,15.8
2016-08-01T19:11:07.543Z,15.7
2016-08-01T19:14:21.894Z,15.7
2016-08-01T19:17:41.173Z,15.6
2016-08-01T19:20:45.620Z,15.6
2016-08-01T19:23:59.719Z,15.5
2016-08-01T19:27:13.758Z,15.5
2016-08-01T19:30:27.896Z,15.4
2016-08-01T19:33:47.208Z,15.4
2016-08-01T19:36:51.536Z,15.4
2016-08-01T19:40:05.565Z,15.4
2016-08-01T19:43:19.185Z,15.3
2016-08-01T19:46:33.210Z,15.3
2016-08-01T19:49:46.833Z,15.3
2016-08-01T19:53:01.017Z,15.3
2016-08-01T19:56:13.820Z,15.2
2016-08-01T19:59:27.620Z,15.2
2016-08-01T20:02:46.388Z,15.2
2016-08-01T20:05:50.669Z,15.2
2016-08-01T20:09:04.490Z,15.1
2016-08-01T20:12:18.554Z,15
2016-08-01T20:15:28.691Z,15
2016-08-01T20:18:47.535Z,14.9
2016-08-01T20:21:51.847Z,14.9
2016-08-01T20:25:05.513Z,14.8
2016-08-01T20:28:19.434Z,14.8
2016-08-01T20:31:32.609Z,14.7
2016-08-01T20:34:46.383Z,14.7
2016-08-01T20:37:59.305Z,14.6
2016-08-01T20:41:13.027Z,14.6
2016-08-01T20:44:27.078Z,14.5
2016-08-01T20:47:46.001Z,14.5
2016-08-01T20:50:50.217Z,14.4
2016-08-01T20:54:04.255Z,14.4
2016-08-01T20:57:16.353Z,14.5
2016-08-01T21:00:31.581Z,14.5
2016-08-01T21:03:45.302Z,14.5
2016-08-01T21:06:58.681Z,14.5
2016-08-01T21:10:12.343Z,14.5
2016-08-01T21:13:26.345Z,14.5
2016-08-01T21:16:45.307Z,14.5
2016-08-01T21:19:49.636Z,14.5
2016-08-01T21:23:03.807Z,14.4
2016-08-01T21:26:17.648Z,14.4
2016-08-01T21:29:31.784Z,14.4
2016-08-01T21:32:45.931Z,14.4
2016-08-01T21:36:00.037Z,14.3
2016-08-01T21:39:14.122Z,14.3
2016-08-01T21:42:28.013Z,14.2
2016-08-01T21:45:47.010Z,14.2
2016-08-01T21:48:51.220Z,14.1
2016-08-01T21:52:04.725Z,14.2
2016-08-01T21:55:17.867Z,14.2
2016-08-01T21:58:31.617Z,14.1
2016-08-01T22:01:45.563Z,14.1
2016-08-01T22:04:57.577Z,14
2016-08-01T22:08:13.484Z,14
2016-08-01T22:11:27.703Z,14
2016-08-01T22:14:46.731Z,14
2016-08-01T22:17:50.822Z,14
2016-08-01T22:21:05.036Z,13.9
2016-08-01T22:24:19.195Z,13.9
2016-08-01T22:27:33.043Z,13.9
2016-08-01T22:30:46.721Z,13.9
2016-08-01T22:34:00.833Z,13.9
2016-08-01T22:37:14.880Z,13.9
2016-08-01T22:40:28.727Z,13.9
2016-08-01T22:43:47.699Z,13.9
2016-08-01T22:46:51.958Z,13.9
2016-08-01T22:50:05.968Z,13.9
2016-08-01T22:56:31.895Z,14
2016-08-01T22:59:45.948Z,14
2016-08-01T23:02:59.820Z,14
2016-08-01T23:06:13.570Z,14
2016-08-01T23:09:26.487Z,14
2016-08-01T23:12:45.518Z,14
2016-08-01T23:15:49.752Z,14.1
2016-08-01T23:19:03.599Z,14.1
2016-08-01T23:22:17.556Z,14.1
2016-08-01T23:25:31.841Z,14.1
2016-08-01T23:28:48.925Z,14.1
2016-08-01T23:31:53.105Z,14.1
2016-08-01T23:35:07.063Z,14.1
2016-08-01T23:38:20.965Z,14
2016-08-01T23:41:39.654Z,14
2016-08-01T23:47:53.046Z,14
2016-08-01T23:51:06.969Z,14
2016-08-01T23:54:21.008Z,14
2016-08-01T23:57:40.178Z,13.9
